sensor_id;sensor_type;location;lat;lon;timestamp;pressure;altitude;pressure_sealevel;temperature;humidity
10948;BME280;5526;42.070;24.752;2023-05-10T00:02:18;99427.53;;;11.22;100.00
10948;BME280;5526;42.070;24.752;2023-05-10T00:04:45;99430.50;;;11.09;100.00
10948;BME280;5526;42.070;24.752;2023-05-10T00:07:13;99432.19;;;11.15;100.00
10948;BME280;5526;42.070;24.752;2023-05-10T00:09:42;99427.44;;;11.17;100.00
10948;BME280;5526;42.070;24.752;2023-05-10T00:12:10;99424.97;;;11.05;100.00
10948;BME280;5526;42.070;24.752;2023-05-10T00:14:37;99423.13;;;11.06;100.00
10948;BME280;5526;42.070;24.752;2023-05-10T00:17:04;99425.75;;;11.06;100.00
10948;BME280;5526;42.070;24.752;2023-05-10T00:19:31;99428.25;;;10.96;100.00
10948;BME280;5526;42.070;24.752;2023-05-10T00:21:58;99429.38;;;11.00;100.00
10948;BME280;5526;42.070;24.752;2023-05-10T00:24:27;99427.59;;;11.05;100.00
10948;BME280;5526;42.070;24.752;2023-05-10T00:26:54;99422.09;;;11.07;100.00
10948;BME280;5526;42.070;24.752;2023-05-10T00:29:21;99407.44;;;10.94;100.00
10948;BME280;5526;42.070;24.752;2023-05-10T00:31:48;99406.66;;;10.94;100.00
10948;BME280;5526;42.070;24.752;2023-05-10T00:34:15;99404.63;;;11.01;100.00
10948;BME280;5526;42.070;24.752;2023-05-10T00:36:42;99418.78;;;10.95;100.00
10948;BME280;5526;42.070;24.752;2023-05-10T00:39:09;99416.75;;;11.02;100.00
10948;BME280;5526;42.070;24.752;2023-05-10T00:41:38;99415.72;;;11.03;100.00
10948;BME280;5526;42.070;24.752;2023-05-10T00:44:05;99415.47;;;11.04;100.00
10948;BME280;5526;42.070;24.752;2023-05-10T00:46:32;99415.09;;;10.96;100.00
10948;BME280;5526;42.070;24.752;2023-05-10T00:48:59;99412.28;;;10.81;100.00
10948;BME280;5526;42.070;24.752;2023-05-10T00:51:26;99405.22;;;10.86;100.00
10948;BME280;5526;42.070;24.752;2023-05-10T00:53:54;99393.22;;;10.74;100.00
10948;BME280;5526;42.070;24.752;2023-05-10T00:56:22;99408.09;;;10.85;100.00
10948;BME280;5526;42.070;24.752;2023-05-10T00:58:51;99408.59;;;10.82;100.00
10948;BME280;5526;42.070;24.752;2023-05-10T01:01:19;99408.34;;;10.83;100.00
10948;BME280;5526;42.070;24.752;2023-05-10T01:03:46;99406.16;;;10.75;100.00
10948;BME280;5526;42.070;24.752;2023-05-10T01:06:14;99403.75;;;10.74;100.00
10948;BME280;5526;42.070;24.752;2023-05-10T01:08:41;99402.66;;;10.70;100.00
10948;BME280;5526;42.070;24.752;2023-05-10T01:11:08;99409.81;;;10.74;100.00
10948;BME280;5526;42.070;24.752;2023-05-10T01:13:37;99410.63;;;10.75;100.00
10948;BME280;5526;42.070;24.752;2023-05-10T01:16:07;99410.81;;;10.68;100.00
10948;BME280;5526;42.070;24.752;2023-05-10T01:18:36;99412.81;;;10.61;100.00
10948;BME280;5526;42.070;24.752;2023-05-10T01:21:15;99410.00;;;10.68;100.00
10948;BME280;5526;42.070;24.752;2023-05-10T01:30:08;99412.66;;;10.51;100.00
10948;BME280;5526;42.070;24.752;2023-05-10T01:32:45;99410.38;;;10.55;100.00
10948;BME280;5526;42.070;24.752;2023-05-10T01:35:19;99408.84;;;10.59;100.00
10948;BME280;5526;42.070;24.752;2023-05-10T01:37:54;99404.28;;;10.54;100.00
10948;BME280;5526;42.070;24.752;2023-05-10T01:40:32;99407.78;;;10.60;100.00
10948;BME280;5526;42.070;24.752;2023-05-10T01:43:04;99409.13;;;10.62;100.00
10948;BME280;5526;42.070;24.752;2023-05-10T01:45:40;99407.31;;;10.63;100.00
10948;BME280;5526;42.070;24.752;2023-05-10T01:48:14;99399.03;;;10.54;100.00
10948;BME280;5526;42.070;24.752;2023-05-10T01:50:43;99407.56;;;10.61;100.00
10948;BME280;5526;42.070;24.752;2023-05-10T01:53:12;99411.53;;;10.64;100.00
10948;BME280;5526;42.070;24.752;2023-05-10T01:55:44;99410.91;;;10.57;100.00
10948;BME280;5526;42.070;24.752;2023-05-10T01:58:15;99405.88;;;10.55;100.00
10948;BME280;5526;42.070;24.752;2023-05-10T02:00:45;99415.94;;;10.58;100.00
10948;BME280;5526;42.070;24.752;2023-05-10T02:03:15;99410.28;;;10.50;100.00
10948;BME280;5526;42.070;24.752;2023-05-10T02:05:43;99410.38;;;10.55;100.00
10948;BME280;5526;42.070;24.752;2023-05-10T02:08:13;99409.38;;;10.61;100.00
10948;BME280;5526;42.070;24.752;2023-05-10T02:10:43;99408.28;;;10.57;100.00
10948;BME280;5526;42.070;24.752;2023-05-10T02:13:12;99411.47;;;10.59;100.00
10948;BME280;5526;42.070;24.752;2023-05-10T02:15:41;99403.00;;;10.57;100.00
10948;BME280;5526;42.070;24.752;2023-05-10T02:18:10;99403.72;;;10.52;100.00
10948;BME280;5526;42.070;24.752;2023-05-10T02:20:40;99410.38;;;10.55;100.00
10948;BME280;5526;42.070;24.752;2023-05-10T02:23:08;99410.66;;;10.58;100.00
10948;BME280;5526;42.070;24.752;2023-05-10T02:25:37;99413.47;;;10.52;100.00
10948;BME280;5526;42.070;24.752;2023-05-10T02:28:06;99409.00;;;10.52;100.00
10948;BME280;5526;42.070;24.752;2023-05-10T02:30:34;99412.84;;;10.45;100.00
10948;BME280;5526;42.070;24.752;2023-05-10T02:33:02;99415.88;;;10.37;100.00
10948;BME280;5526;42.070;24.752;2023-05-10T02:35:32;99407.81;;;10.43;100.00
10948;BME280;5526;42.070;24.752;2023-05-10T02:38:01;99408.06;;;10.42;100.00
10948;BME280;5526;42.070;24.752;2023-05-10T02:40:29;99417.06;;;10.46;100.00
10948;BME280;5526;42.070;24.752;2023-05-10T02:42:57;99423.78;;;10.37;100.00
10948;BME280;5526;42.070;24.752;2023-05-10T02:45:30;99426.72;;;10.40;100.00
10948;BME280;5526;42.070;24.752;2023-05-10T02:47:58;99424.31;;;10.39;100.00
10948;BME280;5526;42.070;24.752;2023-05-10T02:50:27;99421.44;;;10.40;100.00
10948;BME280;5526;42.070;24.752;2023-05-10T02:53:01;99417.00;;;10.41;100.00
10948;BME280;5526;42.070;24.752;2023-05-10T02:55:32;99423.78;;;10.37;100.00
10948;BME280;5526;42.070;24.752;2023-05-10T02:58:02;99418.28;;;10.38;100.00
10948;BME280;5526;42.070;24.752;2023-05-10T03:00:29;99418.53;;;10.37;100.00
10948;BME280;5526;42.070;24.752;2023-05-10T03:02:57;99411.44;;;10.37;100.00
10948;BME280;5526;42.070;24.752;2023-05-10T03:05:25;99420.03;;;10.33;100.00
10948;BME280;5526;42.070;24.752;2023-05-10T03:07:52;99416.06;;;10.30;100.00
10948;BME280;5526;42.070;24.752;2023-05-10T03:10:26;99425.84;;;10.35;100.00
10948;BME280;5526;42.070;24.752;2023-05-10T03:13:05;99423.78;;;10.37;100.00
10948;BME280;5526;42.070;24.752;2023-05-10T03:15:42;99423.78;;;10.37;100.00
10948;BME280;5526;42.070;24.752;2023-05-10T03:18:16;99417.66;;;10.31;100.00
10948;BME280;5526;42.070;24.752;2023-05-10T03:20:48;99421.97;;;10.37;100.00
10948;BME280;5526;42.070;24.752;2023-05-10T03:23:21;99422.75;;;10.38;100.00
10948;BME280;5526;42.070;24.752;2023-05-10T03:25:52;99419.16;;;10.44;100.00
10948;BME280;5526;42.070;24.752;2023-05-10T03:28:20;99417.81;;;10.41;100.00
10948;BME280;5526;42.070;24.752;2023-05-10T03:30:48;99430.56;;;10.33;100.00
10948;BME280;5526;42.070;24.752;2023-05-10T03:33:16;99427.22;;;10.37;100.00
10948;BME280;5526;42.070;24.752;2023-05-10T03:35:43;99434.38;;;10.42;100.00
10948;BME280;5526;42.070;24.752;2023-05-10T03:38:11;99437.56;;;10.44;100.00
10948;BME280;5526;42.070;24.752;2023-05-10T03:40:39;99444.25;;;10.35;100.00
10948;BME280;5526;42.070;24.752;2023-05-10T03:43:08;99445.88;;;10.36;100.00
10948;BME280;5526;42.070;24.752;2023-05-10T03:45:35;99442.59;;;10.29;100.00
10948;BME280;5526;42.070;24.752;2023-05-10T03:48:02;99443.00;;;10.37;100.00
10948;BME280;5526;42.070;24.752;2023-05-10T03:50:29;99444.13;;;10.41;100.00
10948;BME280;5526;42.070;24.752;2023-05-10T03:52:56;99446.00;;;10.46;100.00
10948;BME280;5526;42.070;24.752;2023-05-10T03:55:24;99447.13;;;10.50;100.00
10948;BME280;5526;42.070;24.752;2023-05-10T03:57:51;99449.69;;;10.45;100.00
10948;BME280;5526;42.070;24.752;2023-05-10T04:00:21;99454.22;;;10.49;100.00
10948;BME280;5526;42.070;24.752;2023-05-10T04:02:48;99453.44;;;10.49;100.00
10948;BME280;5526;42.070;24.752;2023-05-10T04:05:15;99461.63;;;10.52;100.00
10948;BME280;5526;42.070;24.752;2023-05-10T04:07:42;99460.38;;;10.55;100.00
10948;BME280;5526;42.070;24.752;2023-05-10T04:10:10;99459.63;;;10.59;100.00
10948;BME280;5526;42.070;24.752;2023-05-10T04:12:37;99466.97;;;10.57;100.00
10948;BME280;5526;42.070;24.752;2023-05-10T04:15:06;99464.25;;;10.52;100.00
10948;BME280;5526;42.070;24.752;2023-05-10T04:17:34;99466.66;;;10.54;100.00
10948;BME280;5526;42.070;24.752;2023-05-10T04:20:01;99471.19;;;10.58;100.00
10948;BME280;5526;42.070;24.752;2023-05-10T04:22:29;99466.31;;;10.67;100.00
10948;BME280;5526;42.070;24.752;2023-05-10T04:24:56;99473.66;;;10.65;100.00
10948;BME280;5526;42.070;24.752;2023-05-10T04:27:23;99472.69;;;10.71;100.00
10948;BME280;5526;42.070;24.752;2023-05-10T04:29:50;99472.28;;;10.79;100.00
10948;BME280;5526;42.070;24.752;2023-05-10T04:32:17;99467.97;;;10.73;100.00
10948;BME280;5526;42.070;24.752;2023-05-10T04:34:47;99470.44;;;10.79;100.00
10948;BME280;5526;42.070;24.752;2023-05-10T04:37:14;99467.81;;;10.79;100.00
10948;BME280;5526;42.070;24.752;2023-05-10T04:39:41;99479.44;;;10.83;100.00
10948;BME280;5526;42.070;24.752;2023-05-10T04:42:08;99479.31;;;10.73;100.00
10948;BME280;5526;42.070;24.752;2023-05-10T04:44:36;99478.16;;;10.86;100.00
10948;BME280;5526;42.070;24.752;2023-05-10T04:47:03;99481.81;;;10.85;100.00
10948;BME280;5526;42.070;24.752;2023-05-10T04:49:30;99480.25;;;10.84;100.00
10948;BME280;5526;42.070;24.752;2023-05-10T04:51:59;99474.97;;;10.84;100.00
10948;BME280;5526;42.070;24.752;2023-05-10T04:54:26;99481.38;;;10.71;100.00
10948;BME280;5526;42.070;24.752;2023-05-10T04:56:53;99479.50;;;10.67;100.00
10948;BME280;5526;42.070;24.752;2023-05-10T04:59:20;99482.38;;;10.65;100.00
10948;BME280;5526;42.070;24.752;2023-05-10T05:01:47;99488.72;;;10.69;100.00
10948;BME280;5526;42.070;24.752;2023-05-10T05:04:14;99483.72;;;10.68;100.00
10948;BME280;5526;42.070;24.752;2023-05-10T05:06:41;99485.22;;;10.64;100.00
10948;BME280;5526;42.070;24.752;2023-05-10T05:09:10;99486.19;;;10.58;100.00
10948;BME280;5526;42.070;24.752;2023-05-10T05:11:37;99493.06;;;10.59;100.00
10948;BME280;5526;42.070;24.752;2023-05-10T05:14:04;99490.78;;;10.67;100.00
10948;BME280;5526;42.070;24.752;2023-05-10T05:16:31;99485.06;;;10.70;100.00
10948;BME280;5526;42.070;24.752;2023-05-10T05:18:59;99490.84;;;10.89;100.00
10948;BME280;5526;42.070;24.752;2023-05-10T05:21:26;99487.25;;;10.95;100.00
10948;BME280;5526;42.070;24.752;2023-05-10T05:23:54;99475.50;;;10.86;100.00
10948;BME280;5526;42.070;24.752;2023-05-10T05:26:22;99479.47;;;11.05;100.00
10948;BME280;5526;42.070;24.752;2023-05-10T05:28:49;99473.47;;;11.09;100.00
10948;BME280;5526;42.070;24.752;2023-05-10T05:31:19;99470.16;;;11.19;100.00
10948;BME280;5526;42.070;24.752;2023-05-10T05:33:46;99476.72;;;11.38;100.00
10948;BME280;5526;42.070;24.752;2023-05-10T05:36:13;99481.00;;;11.44;100.00
10948;BME280;5526;42.070;24.752;2023-05-10T05:38:40;99474.97;;;11.48;100.00
10948;BME280;5526;42.070;24.752;2023-05-10T05:41:08;99478.66;;;11.47;100.00
10948;BME280;5526;42.070;24.752;2023-05-10T05:43:38;99473.84;;;11.61;100.00
10948;BME280;5526;42.070;24.752;2023-05-10T05:46:07;99482.84;;;11.65;100.00
10948;BME280;5526;42.070;24.752;2023-05-10T05:48:34;99485.09;;;11.56;100.00
10948;BME280;5526;42.070;24.752;2023-05-10T05:51:01;99481.56;;;11.67;100.00
10948;BME280;5526;42.070;24.752;2023-05-10T05:53:28;99492.47;;;11.76;100.00
10948;BME280;5526;42.070;24.752;2023-05-10T05:55:56;99490.72;;;11.86;100.00
10948;BME280;5526;42.070;24.752;2023-05-10T05:58:24;99485.47;;;11.91;100.00
10948;BME280;5526;42.070;24.752;2023-05-10T06:00:53;99494.75;;;11.99;100.00
10948;BME280;5526;42.070;24.752;2023-05-10T06:03:20;99489.00;;;12.02;100.00
10948;BME280;5526;42.070;24.752;2023-05-10T06:05:47;99504.56;;;12.03;100.00
10948;BME280;5526;42.070;24.752;2023-05-10T06:08:14;99491.84;;;11.95;100.00
10948;BME280;5526;42.070;24.752;2023-05-10T06:10:41;99491.66;;;12.07;100.00
10948;BME280;5526;42.070;24.752;2023-05-10T06:13:08;99493.56;;;12.11;100.00
10948;BME280;5526;42.070;24.752;2023-05-10T06:15:35;99482.16;;;12.06;100.00
10948;BME280;5526;42.070;24.752;2023-05-10T06:18:04;99489.03;;;12.07;100.00
10948;BME280;5526;42.070;24.752;2023-05-10T06:20:31;99492.25;;;12.14;100.00
10948;BME280;5526;42.070;24.752;2023-05-10T06:22:58;99498.22;;;12.31;100.00
10948;BME280;5526;42.070;24.752;2023-05-10T06:25:25;99497.84;;;12.17;100.00
10948;BME280;5526;42.070;24.752;2023-05-10T06:27:52;99504.28;;;12.31;100.00
10948;BME280;5526;42.070;24.752;2023-05-10T06:30:24;99482.13;;;12.01;100.00
10948;BME280;5526;42.070;24.752;2023-05-10T06:32:54;99489.63;;;12.14;100.00
10948;BME280;5526;42.070;24.752;2023-05-10T06:35:23;99511.94;;;12.28;100.00
10948;BME280;5526;42.070;24.752;2023-05-10T06:37:50;99511.97;;;12.33;100.00
10948;BME280;5526;42.070;24.752;2023-05-10T06:40:17;99509.22;;;12.54;100.00
10948;BME280;5526;42.070;24.752;2023-05-10T06:42:45;99503.06;;;12.44;100.00
10948;BME280;5526;42.070;24.752;2023-05-10T06:45:12;99514.00;;;12.57;100.00
10948;BME280;5526;42.070;24.752;2023-05-10T06:47:40;99522.56;;;12.74;100.00
10948;BME280;5526;42.070;24.752;2023-05-10T06:50:08;99513.31;;;12.72;100.00
10948;BME280;5526;42.070;24.752;2023-05-10T06:52:36;99512.31;;;12.78;100.00
10948;BME280;5526;42.070;24.752;2023-05-10T06:55:05;99512.78;;;12.70;100.00
10948;BME280;5526;42.070;24.752;2023-05-10T06:57:32;99510.28;;;12.53;100.00
10948;BME280;5526;42.070;24.752;2023-05-10T06:59:59;99512.06;;;12.43;100.00
10948;BME280;5526;42.070;24.752;2023-05-10T07:02:27;99500.78;;;12.21;100.00
10948;BME280;5526;42.070;24.752;2023-05-10T07:04:54;99512.00;;;12.38;100.00
10948;BME280;5526;42.070;24.752;2023-05-10T07:07:21;99512.69;;;12.28;100.00
10948;BME280;5526;42.070;24.752;2023-05-10T07:09:49;99516.81;;;12.46;100.00
10948;BME280;5526;42.070;24.752;2023-05-10T07:12:17;99513.59;;;12.39;100.00
10948;BME280;5526;42.070;24.752;2023-05-10T07:14:44;99508.16;;;12.55;100.00
10948;BME280;5526;42.070;24.752;2023-05-10T07:17:12;99517.25;;;12.33;100.00
10948;BME280;5526;42.070;24.752;2023-05-10T07:19:39;99511.53;;;12.14;100.00
10948;BME280;5526;42.070;24.752;2023-05-10T07:22:06;99520.72;;;12.38;100.00
10948;BME280;5526;42.070;24.752;2023-05-10T07:24:33;99513.22;;;12.25;100.00
10948;BME280;5526;42.070;24.752;2023-05-10T07:27:01;99521.63;;;12.22;100.00
10948;BME280;5526;42.070;24.752;2023-05-10T07:29:29;99522.13;;;12.19;100.00
10948;BME280;5526;42.070;24.752;2023-05-10T07:31:56;99524.53;;;12.21;100.00
10948;BME280;5526;42.070;24.752;2023-05-10T07:34:23;99532.72;;;12.92;100.00
10948;BME280;5526;42.070;24.752;2023-05-10T07:36:51;99532.72;;;12.56;100.00
10948;BME280;5526;42.070;24.752;2023-05-10T07:39:18;99532.34;;;12.74;100.00
10948;BME280;5526;42.070;24.752;2023-05-10T07:41:46;99534.66;;;12.65;100.00
10948;BME280;5526;42.070;24.752;2023-05-10T07:44:14;99528.09;;;12.73;100.00
10948;BME280;5526;42.070;24.752;2023-05-10T07:46:44;99530.97;;;12.66;100.00
10948;BME280;5526;42.070;24.752;2023-05-10T07:49:11;99542.34;;;12.72;100.00
10948;BME280;5526;42.070;24.752;2023-05-10T07:51:38;99533.91;;;12.70;100.00
10948;BME280;5526;42.070;24.752;2023-05-10T07:54:05;99539.41;;;13.62;100.00
10948;BME280;5526;42.070;24.752;2023-05-10T07:56:33;99538.75;;;12.88;100.00
10948;BME280;5526;42.070;24.752;2023-05-10T07:59:01;99535.34;;;12.51;100.00
10948;BME280;5526;42.070;24.752;2023-05-10T08:01:32;99539.81;;;12.50;100.00
10948;BME280;5526;42.070;24.752;2023-05-10T08:03:59;99547.28;;;12.58;100.00
10948;BME280;5526;42.070;24.752;2023-05-10T08:06:27;99541.31;;;12.73;100.00
10948;BME280;5526;42.070;24.752;2023-05-10T08:08:55;99538.25;;;13.33;100.00
10948;BME280;5526;42.070;24.752;2023-05-10T08:11:23;99554.38;;;13.31;100.00
10948;BME280;5526;42.070;24.752;2023-05-10T08:13:50;99551.22;;;13.34;100.00
10948;BME280;5526;42.070;24.752;2023-05-10T08:16:18;99546.28;;;13.58;100.00
10948;BME280;5526;42.070;24.752;2023-05-10T08:18:47;99557.72;;;13.73;100.00
10948;BME280;5526;42.070;24.752;2023-05-10T08:21:15;99554.00;;;13.64;100.00
10948;BME280;5526;42.070;24.752;2023-05-10T08:23:42;99565.03;;;13.51;100.00
10948;BME280;5526;42.070;24.752;2023-05-10T08:26:09;99568.66;;;13.35;100.00
10948;BME280;5526;42.070;24.752;2023-05-10T08:28:36;99562.94;;;13.48;100.00
10948;BME280;5526;42.070;24.752;2023-05-10T08:31:04;99558.25;;;13.75;100.00
10948;BME280;5526;42.070;24.752;2023-05-10T08:33:31;99554.03;;;13.79;100.00
10948;BME280;5526;42.070;24.752;2023-05-10T08:36:00;99556.72;;;13.89;100.00
10948;BME280;5526;42.070;24.752;2023-05-10T08:38:27;99567.06;;;14.11;100.00
10948;BME280;5526;42.070;24.752;2023-05-10T08:40:54;99563.09;;;14.08;100.00
10948;BME280;5526;42.070;24.752;2023-05-10T08:43:26;99560.47;;;14.03;100.00
10948;BME280;5526;42.070;24.752;2023-05-10T08:45:54;99560.78;;;14.22;100.00
10948;BME280;5526;42.070;24.752;2023-05-10T08:48:23;99558.94;;;14.32;100.00
10948;BME280;5526;42.070;24.752;2023-05-10T08:50:53;99561.34;;;14.54;98.69
10948;BME280;5526;42.070;24.752;2023-05-10T08:53:24;99560.22;;;14.10;100.00
10948;BME280;5526;42.070;24.752;2023-05-10T08:55:52;99566.75;;;13.87;100.00
10948;BME280;5526;42.070;24.752;2023-05-10T08:58:20;99555.13;;;13.98;100.00
10948;BME280;5526;42.070;24.752;2023-05-10T09:00:48;99553.03;;;13.95;100.00
10948;BME280;5526;42.070;24.752;2023-05-10T09:03:16;99562.56;;;13.91;99.76
10948;BME280;5526;42.070;24.752;2023-05-10T09:05:44;99560.22;;;14.10;99.67
10948;BME280;5526;42.070;24.752;2023-05-10T09:08:11;99557.03;;;14.13;98.78
10948;BME280;5526;42.070;24.752;2023-05-10T09:10:41;99549.88;;;14.18;98.95
10948;BME280;5526;42.070;24.752;2023-05-10T09:13:10;99554.41;;;14.23;100.00
10948;BME280;5526;42.070;24.752;2023-05-10T09:15:37;99551.53;;;14.54;98.98
10948;BME280;5526;42.070;24.752;2023-05-10T09:18:05;99554.16;;;14.79;97.88
10948;BME280;5526;42.070;24.752;2023-05-10T09:20:32;99543.53;;;14.99;96.55
10948;BME280;5526;42.070;24.752;2023-05-10T09:22:59;99535.56;;;15.04;95.48
10948;BME280;5526;42.070;24.752;2023-05-10T09:25:26;99533.97;;;15.13;95.60
10948;BME280;5526;42.070;24.752;2023-05-10T09:27:55;99534.97;;;15.27;94.13
10948;BME280;5526;42.070;24.752;2023-05-10T09:30:25;99532.41;;;14.92;95.56
10948;BME280;5526;42.070;24.752;2023-05-10T09:32:54;99528.88;;;15.27;93.23
10948;BME280;5526;42.070;24.752;2023-05-10T09:35:22;99532.31;;;15.32;92.36
10948;BME280;5526;42.070;24.752;2023-05-10T09:37:51;99528.81;;;16.00;89.59
10948;BME280;5526;42.070;24.752;2023-05-10T09:40:20;99530.81;;;15.75;90.76
10948;BME280;5526;42.070;24.752;2023-05-10T09:42:56;99515.47;;;15.67;76.11
10948;BME280;5526;42.070;24.752;2023-05-10T09:45:24;99517.06;;;15.68;76.10
10948;BME280;5526;42.070;24.752;2023-05-10T09:47:51;99521.78;;;15.76;74.62
10948;BME280;5526;42.070;24.752;2023-05-10T09:50:19;99517.13;;;16.01;73.52
10948;BME280;5526;42.070;24.752;2023-05-10T09:52:50;99513.06;;;16.14;73.77
10948;BME280;5526;42.070;24.752;2023-05-10T09:55:19;99515.22;;;16.40;72.01
10948;BME280;5526;42.070;24.752;2023-05-10T09:57:46;99513.63;;;16.49;72.19
10948;BME280;5526;42.070;24.752;2023-05-10T10:00:19;99508.72;;;16.61;70.70
10948;BME280;5526;42.070;24.752;2023-05-10T10:02:48;99512.50;;;16.84;70.05
10948;BME280;5526;42.070;24.752;2023-05-10T10:05:21;99508.25;;;16.54;70.63
10948;BME280;5526;42.070;24.752;2023-05-10T10:07:48;99505.88;;;16.53;70.17
10948;BME280;5526;42.070;24.752;2023-05-10T10:10:16;99505.41;;;16.46;70.41
10948;BME280;5526;42.070;24.752;2023-05-10T10:12:44;99498.59;;;16.30;70.55
10948;BME280;5526;42.070;24.752;2023-05-10T10:15:11;99495.88;;;16.68;68.30
10948;BME280;5526;42.070;24.752;2023-05-10T10:17:41;99495.50;;;16.80;68.06
10948;BME280;5526;42.070;24.752;2023-05-10T10:20:10;99500.78;;;16.56;68.56
10948;BME280;5526;42.070;24.752;2023-05-10T10:22:37;99503.00;;;17.02;67.05
10948;BME280;5526;42.070;24.752;2023-05-10T10:25:05;99490.56;;;17.21;66.55
10948;BME280;5526;42.070;24.752;2023-05-10T10:27:39;99491.56;;;17.48;65.44
10948;BME280;5526;42.070;24.752;2023-05-10T10:30:20;99491.66;;;17.38;65.62
10948;BME280;5526;42.070;24.752;2023-05-10T10:33:18;99497.06;;;16.57;61.46
10948;BME280;5526;42.070;24.752;2023-05-10T10:35:52;99498.16;;;16.51;66.60
10948;BME280;5526;42.070;24.752;2023-05-10T10:38:20;99483.16;;;16.65;67.69
10948;BME280;5526;42.070;24.752;2023-05-10T10:40:47;99488.94;;;16.72;68.31
10948;BME280;5526;42.070;24.752;2023-05-10T10:43:22;99484.34;;;16.78;66.32
10948;BME280;5526;42.070;24.752;2023-05-10T10:46:11;99490.28;;;16.70;65.69
10948;BME280;5526;42.070;24.752;2023-05-10T10:48:41;99484.53;;;16.86;66.98
10948;BME280;5526;42.070;24.752;2023-05-10T10:51:08;99490.41;;;16.83;66.76
10948;BME280;5526;42.070;24.752;2023-05-10T10:53:37;99478.13;;;16.64;66.38
10948;BME280;5526;42.070;24.752;2023-05-10T10:56:07;99489.69;;;16.49;67.40
10948;BME280;5526;42.070;24.752;2023-05-10T10:58:36;99479.50;;;16.61;66.78
10948;BME280;5526;42.070;24.752;2023-05-10T11:01:11;99495.88;;;16.68;66.05
10948;BME280;5526;42.070;24.752;2023-05-10T11:03:39;99491.28;;;16.50;65.26
10948;BME280;5526;42.070;24.752;2023-05-10T11:06:07;99478.34;;;16.67;66.00
10948;BME280;5526;42.070;24.752;2023-05-10T11:08:41;99475.72;;;16.91;64.73
10948;BME280;5526;42.070;24.752;2023-05-10T11:11:14;99478.66;;;16.89;63.32
10948;BME280;5526;42.070;24.752;2023-05-10T11:13:42;99477.19;;;16.78;63.57
10948;BME280;5526;42.070;24.752;2023-05-10T11:16:14;99450.06;;;16.76;62.05
10948;BME280;5526;42.070;24.752;2023-05-10T11:18:53;99471.66;;;16.75;61.41
10948;BME280;5526;42.070;24.752;2023-05-10T11:21:22;99477.28;;;16.68;62.76
10948;BME280;5526;42.070;24.752;2023-05-10T11:23:50;99462.31;;;16.77;62.86
10948;BME280;5526;42.070;24.752;2023-05-10T11:26:18;99469.72;;;17.04;63.15
10948;BME280;5526;42.070;24.752;2023-05-10T11:28:48;99470.16;;;17.35;61.81
10948;BME280;5526;42.070;24.752;2023-05-10T11:31:16;99466.09;;;17.19;62.26
10948;BME280;5526;42.070;24.752;2023-05-10T11:33:45;99466.53;;;17.26;63.10
10948;BME280;5526;42.070;24.752;2023-05-10T11:36:13;99464.31;;;17.33;62.77
10948;BME280;5526;42.070;24.752;2023-05-10T11:38:42;99466.75;;;17.53;62.45
10948;BME280;5526;42.070;24.752;2023-05-10T11:41:10;99468.31;;;17.54;61.52
10948;BME280;5526;42.070;24.752;2023-05-10T11:43:38;99444.81;;;17.79;61.04
10948;BME280;5526;42.070;24.752;2023-05-10T11:46:06;99454.13;;;17.95;60.26
10948;BME280;5526;42.070;24.752;2023-05-10T11:48:34;99459.47;;;17.95;61.06
10948;BME280;5526;42.070;24.752;2023-05-10T11:51:02;99464.66;;;18.05;60.77
10948;BME280;5526;42.070;24.752;2023-05-10T11:53:31;99469.13;;;17.73;63.22
10948;BME280;5526;42.070;24.752;2023-05-10T11:56:04;99460.41;;;17.86;60.50
10948;BME280;5526;42.070;24.752;2023-05-10T11:58:32;99453.78;;;17.83;60.49
10948;BME280;5526;42.070;24.752;2023-05-10T12:00:59;99457.53;;;17.82;61.24
10948;BME280;5526;42.070;24.752;2023-05-10T12:03:27;99456.66;;;18.05;60.51
10948;BME280;5526;42.070;24.752;2023-05-10T12:05:55;99450.97;;;18.12;59.65
10948;BME280;5526;42.070;24.752;2023-05-10T12:08:23;99453.44;;;18.08;58.87
10948;BME280;5526;42.070;24.752;2023-05-10T12:10:51;99449.09;;;17.94;59.13
10948;BME280;5526;42.070;24.752;2023-05-10T12:13:20;99448.19;;;18.35;56.78
10948;BME280;5526;42.070;24.752;2023-05-10T12:15:47;99458.31;;;17.46;59.03
10948;BME280;5526;42.070;24.752;2023-05-10T12:18:21;99453.38;;;17.58;59.58
10948;BME280;5526;42.070;24.752;2023-05-10T12:20:51;99448.78;;;17.63;60.24
10948;BME280;5526;42.070;24.752;2023-05-10T12:23:20;99443.38;;;17.68;59.73
10948;BME280;5526;42.070;24.752;2023-05-10T12:25:47;99432.00;;;17.81;58.92
10948;BME280;5526;42.070;24.752;2023-05-10T12:28:14;99435.94;;;18.02;58.87
10948;BME280;5526;42.070;24.752;2023-05-10T12:30:43;99436.06;;;18.43;56.79
10948;BME280;5526;42.070;24.752;2023-05-10T12:33:12;99433.03;;;18.49;58.84
10948;BME280;5526;42.070;24.752;2023-05-10T12:35:44;99425.31;;;18.48;58.42
10948;BME280;5526;42.070;24.752;2023-05-10T12:38:25;99430.66;;;18.61;56.24
10948;BME280;5526;42.070;24.752;2023-05-10T12:40:55;99425.94;;;18.72;57.87
10948;BME280;5526;42.070;24.752;2023-05-10T12:43:22;99414.06;;;19.32;56.76
10948;BME280;5526;42.070;24.752;2023-05-10T12:45:51;99413.78;;;20.13;53.35
10948;BME280;5526;42.070;24.752;2023-05-10T12:48:18;99409.09;;;19.74;55.12
10948;BME280;5526;42.070;24.752;2023-05-10T12:50:45;99406.25;;;19.71;55.12
10948;BME280;5526;42.070;24.752;2023-05-10T12:53:13;99395.78;;;19.61;54.51
10948;BME280;5526;42.070;24.752;2023-05-10T12:55:41;99397.78;;;19.33;55.31
10948;BME280;5526;42.070;24.752;2023-05-10T12:58:07;99392.88;;;18.86;56.04
10948;BME280;5526;42.070;24.752;2023-05-10T13:00:35;99383.47;;;18.89;55.94
10948;BME280;5526;42.070;24.752;2023-05-10T13:03:05;99376.31;;;19.25;55.34
10948;BME280;5526;42.070;24.752;2023-05-10T13:05:32;99382.34;;;19.30;56.67
10948;BME280;5526;42.070;24.752;2023-05-10T13:07:59;99376.22;;;19.30;56.38